Time;durP1;ratioP1;P1;durP2;ratioP2;P2;SDS_P1;SDS_P2;PMS_P1;PMS_P2;Temp;Humidity;BMP_temperature;BMP_pressure;BME280_temperature;BME280_humidity;BME280_pressure;Samples;Min_cycle;Max_cycle;Signal;HPM_P1;HPM_P2
2023/10/27 00:01:29;;;;;;;19.37;12.60;;;17.60;99.90;;;;;;5085531;28;20293;-65
2023/10/27 00:03:56;;;;;;;27.83;13.53;;;17.60;99.90;;;;;;5083228;28;20212;-65
2023/10/27 00:06:23;;;;;;;22.73;14.33;;;17.60;99.90;;;;;;5082420;28;20232;-65
2023/10/27 00:08:50;;;;;;;29.00;13.97;;;17.60;99.90;;;;;;5076891;28;20202;-65
2023/10/27 00:11:17;;;;;;;24.53;14.90;;;17.60;99.90;;;;;;5087426;28;20218;-65
2023/10/27 00:13:44;;;;;;;23.60;13.70;;;17.60;99.90;;;;;;5080042;28;20216;-65
2023/10/27 00:16:11;;;;;;;24.87;13.53;;;17.60;99.90;;;;;;5079732;28;20649;-65
2023/10/27 00:18:38;;;;;;;21.60;13.17;;;17.60;99.90;;;;;;5084086;28;20202;-65
2023/10/27 00:21:05;;;;;;;24.07;13.47;;;17.60;99.90;;;;;;5083430;28;20602;-65
2023/10/27 00:23:32;;;;;;;19.37;11.17;;;17.60;99.90;;;;;;5082552;28;20231;-65
2023/10/27 00:26:00;;;;;;;16.80;10.03;;;17.60;99.90;;;;;;5065813;28;20211;-66
2023/10/27 00:28:28;;;;;;;12.20;7.40;;;17.60;99.90;;;;;;5084011;28;20198;-66
2023/10/27 00:30:55;;;;;;;15.20;8.93;;;17.60;99.90;;;;;;5085238;28;20293;-65
2023/10/27 00:33:22;;;;;;;15.90;9.07;;;17.60;99.90;;;;;;5067911;28;20210;-66
2023/10/27 00:35:53;;;;;;;16.00;8.77;;;17.60;99.90;;;;;;5066952;28;20206;-65
2023/10/27 00:38:21;;;;;;;15.77;9.23;;;17.70;99.90;;;;;;5075308;28;20681;-65
2023/10/27 00:40:48;;;;;;;19.77;10.10;;;17.60;99.90;;;;;;5083198;28;20196;-65
2023/10/27 00:43:16;;;;;;;19.67;9.43;;;17.60;99.90;;;;;;5087893;28;20274;-65
2023/10/27 00:45:49;;;;;;;17.80;8.77;;;17.60;99.90;;;;;;5080362;28;20540;-65
2023/10/27 00:48:17;;;;;;;15.27;8.40;;;17.60;99.90;;;;;;5059560;28;20221;-65
2023/10/27 00:50:44;;;;;;;16.43;7.97;;;17.60;99.90;;;;;;5075374;28;20276;-65
2023/10/27 00:53:18;;;;;;;13.70;7.53;;;17.60;99.90;;;;;;5081092;28;20214;-65
2023/10/27 00:55:46;;;;;;;12.13;7.13;;;17.50;99.90;;;;;;5086325;28;20199;-64
2023/10/27 00:58:14;;;;;;;11.97;7.33;;;17.60;99.90;;;;;;5087972;28;20200;-65
2023/10/27 01:00:42;;;;;;;11.10;6.37;;;17.50;99.90;;;;;;5080650;28;20195;-65
2023/10/27 01:03:09;;;;;;;9.17;6.23;;;17.50;99.90;;;;;;5075742;28;20198;-65
2023/10/27 01:05:36;;;;;;;13.47;6.10;;;17.50;99.90;;;;;;5085487;28;20233;-65
2023/10/27 01:08:04;;;;;;;9.73;5.87;;;17.50;99.90;;;;;;5090494;28;20202;-65
2023/10/27 01:10:31;;;;;;;8.00;5.80;;;17.50;99.90;;;;;;5082761;28;20528;-65
2023/10/27 01:12:58;;;;;;;15.37;8.37;;;17.50;99.90;;;;;;5089546;28;20291;-65
2023/10/27 01:15:25;;;;;;;14.63;8.33;;;17.50;99.90;;;;;;5088049;28;20210;-65
2023/10/27 01:17:52;;;;;;;16.03;7.63;;;17.50;99.90;;;;;;5086608;28;20527;-65
2023/10/27 01:20:19;;;;;;;14.63;8.03;;;17.50;99.90;;;;;;5083729;28;20237;-65
2023/10/27 01:22:47;;;;;;;14.17;6.73;;;17.50;99.90;;;;;;5085966;28;20244;-65
2023/10/27 01:25:15;;;;;;;14.57;7.03;;;17.50;99.90;;;;;;5073120;28;20234;-65
2023/10/27 01:27:43;;;;;;;12.27;6.97;;;17.50;99.90;;;;;;5079913;28;20198;-65
2023/10/27 01:30:11;;;;;;;14.47;7.13;;;17.50;99.90;;;;;;5086063;28;20691;-66
2023/10/27 01:32:43;;;;;;;12.00;5.97;;;17.50;99.90;;;;;;5083373;28;20209;-64
2023/10/27 01:35:11;;;;;;;14.47;7.10;;;17.50;99.90;;;;;;5073593;28;20198;-65
2023/10/27 01:37:38;;;;;;;9.63;5.23;;;17.50;99.90;;;;;;5069885;28;20290;-65
2023/10/27 01:40:06;;;;;;;8.63;6.07;;;17.50;99.90;;;;;;5084310;28;20499;-65
2023/10/27 01:42:34;;;;;;;9.03;5.53;;;17.50;99.90;;;;;;5072956;28;20279;-65
2023/10/27 01:45:04;;;;;;;9.97;4.60;;;17.50;99.90;;;;;;5081832;28;20199;-65
2023/10/27 01:47:32;;;;;;;6.73;5.30;;;17.50;99.90;;;;;;5086064;28;20257;-65
2023/10/27 01:49:59;;;;;;;8.80;5.07;;;17.50;99.90;;;;;;5078994;28;20221;-65
2023/10/27 01:52:26;;;;;;;7.93;4.57;;;17.50;99.90;;;;;;5065143;28;20277;-65
2023/10/27 01:54:53;;;;;;;11.33;4.40;;;17.50;99.90;;;;;;5080319;28;20626;-66
2023/10/27 01:57:23;;;;;;;9.53;4.70;;;17.50;99.90;;;;;;5080235;28;20203;-65
2023/10/27 01:59:50;;;;;;;12.03;5.03;;;17.50;99.90;;;;;;5064732;28;20203;-66
2023/10/27 02:02:17;;;;;;;7.50;4.53;;;17.50;99.90;;;;;;5074760;28;20294;-65
2023/10/27 02:04:44;;;;;;;12.77;5.10;;;17.50;99.90;;;;;;5065215;28;20558;-66
2023/10/27 02:07:12;;;;;;;6.80;4.43;;;17.40;99.90;;;;;;5071444;28;20195;-65
2023/10/27 02:09:39;;;;;;;8.93;4.43;;;17.50;99.90;;;;;;5084830;28;20194;-65
2023/10/27 02:12:10;;;;;;;10.53;4.90;;;17.50;99.90;;;;;;5085401;28;20303;-65
2023/10/27 02:14:38;;;;;;;9.40;4.10;;;17.40;99.90;;;;;;5066343;28;20232;-65
2023/10/27 02:17:05;;;;;;;6.20;3.97;;;17.40;99.90;;;;;;5073472;28;20290;-65
2023/10/27 02:19:33;;;;;;;9.17;4.30;;;17.40;99.90;;;;;;5087230;28;20251;-65
2023/10/27 02:22:00;;;;;;;11.00;3.97;;;17.40;99.90;;;;;;5084085;28;20238;-66
2023/10/27 02:24:28;;;;;;;14.10;4.60;;;17.40;99.90;;;;;;5078360;28;20654;-65
2023/10/27 02:26:55;;;;;;;11.70;4.67;;;17.40;99.90;;;;;;5082570;28;20238;-65
2023/10/27 02:29:22;;;;;;;7.07;4.20;;;17.40;99.90;;;;;;5079874;28;20210;-65
2023/10/27 02:31:49;;;;;;;12.53;4.90;;;17.30;99.90;;;;;;5073190;28;20231;-65
2023/10/27 02:34:16;;;;;;;11.17;5.60;;;17.30;99.90;;;;;;5082994;28;20208;-65
2023/10/27 02:36:43;;;;;;;13.67;5.70;;;17.30;99.90;;;;;;5076629;28;20209;-65
2023/10/27 02:39:10;;;;;;;16.03;7.83;;;17.30;99.90;;;;;;5085889;28;20242;-65
2023/10/27 02:41:37;;;;;;;13.97;7.10;;;17.30;99.90;;;;;;5092404;28;20290;-65
2023/10/27 02:44:04;;;;;;;18.23;9.13;;;17.30;99.90;;;;;;5069208;28;20220;-65
2023/10/27 02:46:33;;;;;;;17.90;9.27;;;17.20;99.90;;;;;;5072567;28;20213;-65
2023/10/27 02:49:00;;;;;;;13.77;9.47;;;17.20;99.90;;;;;;5068793;28;20628;-65
2023/10/27 02:51:27;;;;;;;17.73;9.43;;;17.30;99.90;;;;;;5059873;28;20216;-65
2023/10/27 02:53:55;;;;;;;20.20;9.57;;;17.20;99.90;;;;;;5081168;28;20219;-65
2023/10/27 02:56:23;;;;;;;21.17;10.70;;;17.30;99.90;;;;;;5066734;28;20199;-65
2023/10/27 02:58:51;;;;;;;20.83;11.67;;;17.30;99.90;;;;;;5072007;28;20357;-66
2023/10/27 03:01:18;;;;;;;21.07;11.63;;;17.30;99.90;;;;;;5064820;28;20211;-65
2023/10/27 03:03:45;;;;;;;18.07;11.50;;;17.30;99.90;;;;;;5084554;28;20199;-65
2023/10/27 03:06:12;;;;;;;21.10;11.53;;;17.30;99.90;;;;;;5062746;28;20230;-65
2023/10/27 03:08:41;;;;;;;20.47;11.07;;;17.30;99.90;;;;;;5073884;28;20260;-65
2023/10/27 03:11:11;;;;;;;17.70;10.93;;;17.30;99.90;;;;;;5074355;28;20603;-65
2023/10/27 03:13:38;;;;;;;18.00;10.90;;;17.30;99.90;;;;;;5071556;28;20234;-65
2023/10/27 03:16:05;;;;;;;23.47;12.03;;;17.30;99.90;;;;;;5061954;28;20290;-64
2023/10/27 03:18:32;;;;;;;20.97;11.20;;;17.30;99.90;;;;;;5079026;28;20691;-64
2023/10/27 03:21:03;;;;;;;22.17;11.37;;;17.30;99.90;;;;;;5082020;28;20220;-65
2023/10/27 03:23:30;;;;;;;20.40;11.30;;;17.30;99.90;;;;;;5085562;28;20250;-65
2023/10/27 03:25:58;;;;;;;23.43;12.20;;;17.30;99.90;;;;;;5078811;28;20225;-65
2023/10/27 03:28:25;;;;;;;30.30;10.77;;;17.30;99.90;;;;;;5085957;28;20197;-65
2023/10/27 03:30:53;;;;;;;19.27;11.60;;;17.30;99.90;;;;;;5081793;28;20200;-65
2023/10/27 03:33:20;;;;;;;22.33;10.97;;;17.30;99.90;;;;;;5080163;28;20227;-65
2023/10/27 03:35:47;;;;;;;18.03;10.57;;;17.30;99.90;;;;;;5067901;28;20570;-65
2023/10/27 03:38:14;;;;;;;17.07;10.20;;;17.30;99.90;;;;;;5085593;28;20274;-65
2023/10/27 03:40:43;;;;;;;19.57;10.70;;;17.30;99.90;;;;;;5076825;28;20204;-64
2023/10/27 03:43:10;;;;;;;15.87;9.87;;;17.30;99.90;;;;;;5091267;28;20641;-64
2023/10/27 03:45:37;;;;;;;18.07;8.90;;;17.30;99.90;;;;;;5075068;28;20307;-65
2023/10/27 03:48:05;;;;;;;12.20;6.10;;;17.40;99.90;;;;;;5084283;28;20195;-65
2023/10/27 03:50:32;;;;;;;8.90;4.93;;;17.40;99.90;;;;;;5084675;28;20231;-65
2023/10/27 03:52:59;;;;;;;15.30;7.17;;;17.40;99.90;;;;;;5068582;28;20205;-65
2023/10/27 03:55:26;;;;;;;17.37;7.90;;;17.40;99.90;;;;;;5079138;28;20645;-65
2023/10/27 03:57:55;;;;;;;13.40;7.50;;;17.50;99.90;;;;;;5084919;28;20207;-65
2023/10/27 04:00:24;;;;;;;13.07;6.60;;;17.50;99.90;;;;;;5078784;28;20317;-65
2023/10/27 04:02:52;;;;;;;16.10;7.30;;;17.50;99.90;;;;;;5079352;28;20295;-65
2023/10/27 04:05:19;;;;;;;12.90;6.73;;;17.50;99.90;;;;;;5082242;28;20558;-65
2023/10/27 04:07:46;;;;;;;10.30;7.03;;;17.50;99.90;;;;;;5083038;28;20203;-66
2023/10/27 04:10:13;;;;;;;10.53;6.33;;;17.40;99.90;;;;;;5081779;28;20284;-65
2023/10/27 04:12:40;;;;;;;16.20;7.67;;;17.40;99.90;;;;;;5057645;28;20202;-65
2023/10/27 04:15:08;;;;;;;13.70;8.60;;;17.40;99.90;;;;;;5084668;28;20294;-65
2023/10/27 04:17:36;;;;;;;20.10;10.33;;;17.40;99.90;;;;;;5080715;28;20283;-65
2023/10/27 04:20:04;;;;;;;18.63;11.70;;;17.40;99.90;;;;;;5083076;28;20216;-64
2023/10/27 04:22:31;;;;;;;21.93;14.23;;;17.40;99.90;;;;;;5081341;28;20292;-64
2023/10/27 04:24:59;;;;;;;23.23;15.00;;;17.40;99.90;;;;;;5086303;28;20513;-65
2023/10/27 04:27:28;;;;;;;20.47;14.33;;;17.40;99.90;;;;;;5080805;28;20260;-65
2023/10/27 04:29:56;;;;;;;22.93;15.80;;;17.30;99.90;;;;;;5083374;28;20206;-65
2023/10/27 04:32:24;;;;;;;17.73;14.80;;;17.30;99.90;;;;;;5081392;28;20209;-65
2023/10/27 04:34:51;;;;;;;26.03;14.93;;;17.20;99.90;;;;;;5084928;28;20609;-65
2023/10/27 04:37:19;;;;;;;20.80;15.10;;;17.20;99.90;;;;;;5079284;28;20210;-65
2023/10/27 04:39:47;;;;;;;26.07;14.80;;;17.20;99.90;;;;;;5078080;28;20214;-65
2023/10/27 04:42:14;;;;;;;19.27;14.00;;;17.10;99.90;;;;;;5074392;28;20642;-65
2023/10/27 04:44:41;;;;;;;20.40;13.80;;;17.10;99.90;;;;;;5077541;28;20528;-65
2023/10/27 04:47:08;;;;;;;20.43;14.63;;;17.10;99.90;;;;;;5074688;28;20293;-65
2023/10/27 04:49:35;;;;;;;18.93;14.80;;;17.10;99.90;;;;;;5078676;28;20202;-66
2023/10/27 04:52:02;;;;;;;19.00;13.30;;;17.10;99.90;;;;;;5078504;28;20251;-65
2023/10/27 04:54:29;;;;;;;21.20;15.00;;;17.10;99.90;;;;;;5082323;28;20214;-65
2023/10/27 04:56:56;;;;;;;20.60;14.83;;;17.10;99.90;;;;;;5077502;28;20204;-64
2023/10/27 04:59:23;;;;;;;23.77;13.33;;;17.10;99.90;;;;;;5084529;28;20199;-64
2023/10/27 05:01:50;;;;;;;22.03;15.03;;;17.20;99.90;;;;;;5080185;28;20678;-64
2023/10/27 05:04:17;;;;;;;19.37;13.43;;;17.10;99.90;;;;;;5086958;28;20202;-65
2023/10/27 05:06:44;;;;;;;19.60;14.03;;;17.20;99.90;;;;;;5084443;28;20634;-65
2023/10/27 05:09:12;;;;;;;25.80;15.43;;;17.20;99.90;;;;;;5085780;28;20210;-64
2023/10/27 05:11:42;;;;;;;27.73;19.53;;;17.20;99.90;;;;;;5067386;28;20199;-65
2023/10/27 05:14:10;;;;;;;29.70;18.97;;;17.10;99.90;;;;;;5082793;28;20308;-64
2023/10/27 05:16:37;;;;;;;29.63;18.77;;;17.10;99.90;;;;;;5083345;28;20199;-65
2023/10/27 05:19:04;;;;;;;28.70;20.33;;;17.10;99.90;;;;;;5080813;28;20326;-65
2023/10/27 05:21:32;;;;;;;27.97;19.53;;;17.10;99.90;;;;;;5084581;28;20256;-65
2023/10/27 05:24:01;;;;;;;31.03;21.93;;;17.10;99.90;;;;;;5084607;28;20269;-65
2023/10/27 05:26:28;;;;;;;32.43;24.17;;;17.10;99.90;;;;;;5085597;28;20261;-64
2023/10/27 05:28:55;;;;;;;34.20;23.33;;;17.10;99.90;;;;;;5080972;28;20204;-65
2023/10/27 05:31:26;;;;;;;38.63;24.80;;;17.10;99.90;;;;;;5084700;28;20643;-65
2023/10/27 05:33:53;;;;;;;36.37;24.93;;;17.10;99.90;;;;;;5081211;28;20315;-65
2023/10/27 05:36:20;;;;;;;40.87;26.90;;;17.10;99.90;;;;;;5080224;28;20296;-64
2023/10/27 05:38:47;;;;;;;37.43;26.83;;;17.10;99.90;;;;;;5082567;28;20249;-65
2023/10/27 05:41:14;;;;;;;46.93;27.73;;;17.10;99.90;;;;;;5082578;28;20210;-65
2023/10/27 05:43:41;;;;;;;38.30;26.57;;;17.10;99.90;;;;;;5077061;28;20616;-65
2023/10/27 05:46:08;;;;;;;42.67;27.33;;;17.10;99.90;;;;;;5082152;28;20230;-65
2023/10/27 05:48:36;;;;;;;42.80;27.57;;;17.10;99.90;;;;;;5079632;28;20200;-65
2023/10/27 05:51:03;;;;;;;42.53;27.47;;;17.10;99.90;;;;;;5087452;28;20202;-65
2023/10/27 05:53:30;;;;;;;43.30;28.07;;;17.20;99.90;;;;;;5088373;28;21085;-65
2023/10/27 05:55:57;;;;;;;38.03;26.63;;;17.20;99.90;;;;;;5083348;28;20630;-65
2023/10/27 05:58:24;;;;;;;43.17;26.93;;;17.20;99.90;;;;;;5081617;28;20530;-65
2023/10/27 06:00:51;;;;;;;48.20;29.43;;;17.20;99.90;;;;;;5084319;28;20210;-65
2023/10/27 06:03:18;;;;;;;44.67;29.50;;;17.20;99.90;;;;;;5084045;28;20198;-65
2023/10/27 06:05:46;;;;;;;49.20;30.80;;;17.20;99.90;;;;;;5083462;28;20212;-65
2023/10/27 06:08:13;;;;;;;46.67;28.77;;;17.20;99.90;;;;;;5081839;28;20199;-65
2023/10/27 06:10:40;;;;;;;50.80;31.73;;;17.30;99.90;;;;;;5090957;28;20251;-65
2023/10/27 06:13:07;;;;;;;56.90;31.10;;;17.30;99.90;;;;;;5086971;28;20650;-64
2023/10/27 06:15:34;;;;;;;50.87;32.07;;;17.30;99.90;;;;;;5088039;28;20215;-65
2023/10/27 06:18:01;;;;;;;53.67;32.07;;;17.30;99.90;;;;;;5082519;28;20206;-65
2023/10/27 06:20:29;;;;;;;53.67;30.97;;;17.30;99.90;;;;;;5082569;28;20197;-65
2023/10/27 06:22:56;;;;;;;57.73;35.40;;;17.30;99.90;;;;;;5085663;28;20332;-65
2023/10/27 06:25:25;;;;;;;55.23;32.90;;;17.30;99.90;;;;;;5079838;28;20205;-65
2023/10/27 06:27:54;;;;;;;58.07;33.83;;;17.30;99.90;;;;;;5081900;28;20206;-65
2023/10/27 06:30:21;;;;;;;58.30;33.77;;;17.30;99.90;;;;;;5078980;28;20207;-65
2023/10/27 06:32:48;;;;;;;55.80;30.97;;;17.40;99.90;;;;;;5084389;28;20198;-65
2023/10/27 06:35:16;;;;;;;48.93;27.30;;;17.40;99.90;;;;;;5079418;28;20221;-65
2023/10/27 06:37:43;;;;;;;51.93;28.87;;;17.40;99.90;;;;;;5076243;28;20214;-65
2023/10/27 06:40:10;;;;;;;50.07;27.70;;;17.40;99.90;;;;;;5083812;28;20190;-64
2023/10/27 06:42:38;;;;;;;48.07;27.30;;;17.40;99.90;;;;;;5077799;28;20238;-64
2023/10/27 06:45:05;;;;;;;47.47;26.20;;;17.40;99.90;;;;;;5079629;28;20281;-64
2023/10/27 06:47:32;;;;;;;50.93;26.73;;;17.40;99.90;;;;;;5077533;28;20651;-65
2023/10/27 06:50:01;;;;;;;45.80;25.53;;;17.30;99.90;;;;;;5080384;28;20205;-65
2023/10/27 06:52:28;;;;;;;46.60;25.83;;;17.30;99.90;;;;;;5086931;28;20198;-65
2023/10/27 06:54:55;;;;;;;43.20;23.57;;;17.40;99.90;;;;;;5086826;28;20687;-65
2023/10/27 06:57:22;;;;;;;40.70;23.70;;;17.40;99.90;;;;;;5084437;28;20638;-65
2023/10/27 06:59:49;;;;;;;36.87;22.17;;;17.50;99.90;;;;;;5086591;28;20194;-65
2023/10/27 07:02:16;;;;;;;32.20;23.50;;;17.50;99.90;;;;;;5085348;28;20261;-65
2023/10/27 07:04:44;;;;;;;30.13;20.10;;;17.60;99.90;;;;;;5083471;28;20210;-65
2023/10/27 07:07:11;;;;;;;32.87;20.67;;;17.60;99.90;;;;;;5087348;28;20328;-64
2023/10/27 07:09:53;;;;;;;29.33;19.93;;;17.70;99.90;;;;;;5088561;28;20576;-63
2023/10/27 07:12:20;;;;;;;29.23;19.67;;;17.80;99.90;;;;;;5083952;28;20209;-65
2023/10/27 07:14:47;;;;;;;31.37;21.37;;;17.90;99.90;;;;;;5088317;28;20268;-66
2023/10/27 07:17:14;;;;;;;27.90;20.10;;;18.00;99.90;;;;;;5080430;28;20207;-64
2023/10/27 07:19:41;;;;;;;25.73;18.53;;;18.30;99.90;;;;;;5082710;28;20198;-64
2023/10/27 07:22:09;;;;;;;25.87;19.33;;;18.50;99.90;;;;;;5081800;28;20612;-64
2023/10/27 07:24:36;;;;;;;23.17;18.13;;;18.80;99.90;;;;;;5079066;28;20551;-64
2023/10/27 07:27:03;;;;;;;21.43;16.43;;;19.00;99.90;;;;;;5084754;28;20221;-63
2023/10/27 07:29:31;;;;;;;22.67;16.47;;;19.10;99.90;;;;;;5081317;28;20326;-65
2023/10/27 07:31:58;;;;;;;23.60;16.40;;;19.10;99.90;;;;;;5083561;28;20207;-64
2023/10/27 07:34:25;;;;;;;21.57;16.10;;;19.20;99.90;;;;;;5075830;28;20238;-65
2023/10/27 07:36:53;;;;;;;23.53;16.50;;;19.20;99.90;;;;;;5075406;28;20208;-64
2023/10/27 07:39:22;;;;;;;19.47;15.77;;;19.20;99.90;;;;;;5083783;28;20266;-66
2023/10/27 07:41:52;;;;;;;22.33;16.07;;;19.20;99.90;;;;;;5083418;28;20209;-65
2023/10/27 07:44:19;;;;;;;19.70;15.37;;;19.30;99.90;;;;;;5076419;28;20551;-64
2023/10/27 07:46:46;;;;;;;19.73;15.53;;;19.40;99.90;;;;;;5084639;28;20614;-63
2023/10/27 07:49:14;;;;;;;17.00;13.50;;;19.40;99.90;;;;;;5078002;28;20204;-63
2023/10/27 07:51:41;;;;;;;18.37;13.97;;;19.60;99.90;;;;;;5078469;28;20267;-64
2023/10/27 07:54:08;;;;;;;16.60;13.63;;;19.60;99.90;;;;;;5085205;28;20704;-65
2023/10/27 07:56:35;;;;;;;15.57;13.60;;;19.60;99.90;;;;;;5087376;28;20677;-65
2023/10/27 07:59:02;;;;;;;18.10;13.50;;;19.50;99.90;;;;;;5079380;28;20595;-64
2023/10/27 08:01:29;;;;;;;16.27;13.00;;;19.40;99.90;;;;;;5086803;28;20189;-65
2023/10/27 08:03:56;;;;;;;17.07;13.77;;;19.40;99.90;;;;;;5081582;28;20697;-64
2023/10/27 08:06:23;;;;;;;16.00;11.93;;;19.40;99.90;;;;;;5078948;28;20788;-66
2023/10/27 08:08:50;;;;;;;15.03;12.00;;;19.30;99.90;;;;;;5083591;28;20212;-67
2023/10/27 08:11:17;;;;;;;20.47;13.47;;;19.40;99.90;;;;;;5087082;28;20473;-64
2023/10/27 08:13:44;;;;;;;18.30;13.63;;;19.40;99.90;;;;;;5080367;28;20212;-65
2023/10/27 08:16:13;;;;;;;15.00;12.87;;;19.30;99.90;;;;;;5081744;28;20216;-65
2023/10/27 08:18:40;;;;;;;14.70;12.13;;;19.20;99.70;;;;;;5079148;28;20386;-66
2023/10/27 08:21:07;;;;;;;16.53;13.03;;;19.20;99.70;;;;;;5076933;28;20193;-64
2023/10/27 08:23:34;;;;;;;17.20;11.97;;;19.10;99.70;;;;;;5075622;28;20360;-66
2023/10/27 08:26:01;;;;;;;17.17;12.30;;;19.10;99.70;;;;;;5080765;28;20627;-65
2023/10/27 08:28:29;;;;;;;14.73;11.37;;;19.20;99.40;;;;;;5081110;28;20228;-63
2023/10/27 08:30:56;;;;;;;15.30;12.00;;;19.10;99.10;;;;;;5074081;28;20200;-63
2023/10/27 08:33:24;;;;;;;15.43;11.23;;;19.00;99.10;;;;;;5078259;28;20220;-67
2023/10/27 08:35:51;;;;;;;15.37;11.90;;;19.00;99.20;;;;;;5073173;28;20227;-65
2023/10/27 08:38:18;;;;;;;15.37;12.63;;;19.00;99.00;;;;;;5077923;28;20199;-65
2023/10/27 08:40:46;;;;;;;12.73;10.80;;;19.00;99.00;;;;;;5090320;28;20191;-64
2023/10/27 08:43:13;;;;;;;14.30;11.13;;;19.00;99.00;;;;;;5088936;28;20220;-67
2023/10/27 08:45:43;;;;;;;15.50;10.83;;;19.10;98.80;;;;;;5078659;28;20239;-64
2023/10/27 08:48:10;;;;;;;19.00;11.23;;;19.00;98.40;;;;;;5087020;28;20196;-67
2023/10/27 08:50:40;;;;;;;16.33;12.70;;;18.90;98.10;;;;;;5081544;28;20220;-68
2023/10/27 08:53:10;;;;;;;16.70;12.37;;;18.80;98.20;;;;;;5084024;28;20649;-65
2023/10/27 08:55:37;;;;;;;18.27;11.90;;;18.70;98.40;;;;;;5082675;28;20212;-67
2023/10/27 08:58:04;;;;;;;14.93;12.40;;;18.70;98.20;;;;;;5081780;28;20206;-64
2023/10/27 09:00:31;;;;;;;15.80;12.17;;;18.70;98.40;;;;;;5076138;28;20292;-64
2023/10/27 09:03:13;;;;;;;17.40;12.27;;;18.60;98.30;;;;;;5085473;28;20216;-65
2023/10/27 09:05:40;;;;;;;16.53;12.30;;;18.60;98.60;;;;;;5086160;28;20204;-65
2023/10/27 09:08:08;;;;;;;17.53;12.30;;;18.60;98.80;;;;;;5086760;28;20234;-64
2023/10/27 09:10:36;;;;;;;17.67;13.47;;;18.70;99.00;;;;;;5087570;28;20745;-66
2023/10/27 09:13:04;;;;;;;16.40;13.00;;;18.90;98.90;;;;;;5085280;28;20284;-67
2023/10/27 09:15:43;;;;;;;16.57;13.17;;;19.00;98.50;;;;;;5081886;28;20231;-67
2023/10/27 09:18:11;;;;;;;14.30;11.77;;;19.20;98.40;;;;;;5081707;28;20197;-66
2023/10/27 09:20:52;;;;;;;14.87;12.47;;;19.30;98.20;;;;;;5083590;28;20201;-64
2023/10/27 09:23:20;;;;;;;13.40;11.40;;;19.40;98.10;;;;;;5083795;28;20706;-68
2023/10/27 09:25:47;;;;;;;16.60;13.50;;;19.50;97.80;;;;;;5085306;28;20208;-67
2023/10/27 09:28:14;;;;;;;15.10;12.33;;;19.60;97.30;;;;;;5082005;28;20192;-65
2023/10/27 09:30:42;;;;;;;15.63;12.50;;;19.70;97.00;;;;;;5076994;28;20194;-67
2023/10/27 09:33:16;;;;;;;18.40;14.00;;;19.80;97.00;;;;;;5076619;28;20287;-66
2023/10/27 09:35:44;;;;;;;15.03;12.13;;;19.80;97.00;;;;;;5083505;28;20220;-66
2023/10/27 09:38:13;;;;;;;17.53;13.10;;;20.00;97.00;;;;;;5078700;28;20189;-67
2023/10/27 09:40:42;;;;;;;15.90;12.93;;;20.00;96.90;;;;;;5077059;28;20193;-69
2023/10/27 09:43:19;;;;;;;21.67;13.63;;;20.10;96.90;;;;;;5084146;28;20207;-65
2023/10/27 09:45:59;;;;;;;13.80;11.60;;;20.20;96.80;;;;;;5080184;28;20284;-66
2023/10/27 09:48:27;;;;;;;14.03;11.87;;;20.30;96.30;;;;;;5081130;28;20253;-69
2023/10/27 09:51:11;;;;;;;16.50;13.17;;;20.40;96.00;;;;;;5079594;28;20577;-67
2023/10/27 09:53:39;;;;;;;15.70;12.47;;;20.50;95.90;;;;;;5087318;28;20222;-65
2023/10/27 09:56:07;;;;;;;15.17;11.97;;;20.50;95.80;;;;;;5080161;28;20221;-66
2023/10/27 09:59:18;;;;;;;13.33;11.80;;;20.60;95.90;;;;;;5083054;28;20194;-66
2023/10/27 10:02:10;;;;;;;13.07;10.90;;;20.70;95.90;;;;;;5085089;28;20178;-66
2023/10/27 10:05:08;;;;;;;12.17;10.80;;;20.80;95.40;;;;;;5082145;28;20591;-65
2023/10/27 10:07:53;;;;;;;15.20;12.10;;;21.00;94.70;;;;;;5068932;28;20702;-65
2023/10/27 10:10:34;;;;;;;15.20;12.70;;;21.00;94.50;;;;;;5088418;28;20257;-67
2023/10/27 10:13:03;;;;;;;14.83;12.57;;;21.10;94.70;;;;;;5084204;28;20209;-65
2023/10/27 10:15:39;;;;;;;14.80;12.73;;;21.20;94.80;;;;;;5083649;28;20312;-67
2023/10/27 10:18:07;;;;;;;13.23;11.83;;;21.30;94.70;;;;;;5089849;28;20196;-66
2023/10/27 10:21:16;;;;;;;15.53;12.33;;;21.50;94.70;;;;;;5080307;28;20247;-65
2023/10/27 10:23:42;;;;;;;14.87;11.90;;;21.50;94.40;;;;;;5076872;28;20256;-65
2023/10/27 10:26:09;;;;;;;12.53;10.60;;;21.70;94.30;;;;;;5078354;28;20566;-67
2023/10/27 10:28:41;;;;;;;13.07;9.27;;;21.70;94.20;;;;;;5081850;28;20536;-66
2023/10/27 10:31:09;;;;;;;11.33;9.17;;;21.80;93.90;;;;;;5079540;28;20697;-66
2023/10/27 10:33:45;;;;;;;11.90;9.67;;;21.90;93.60;;;;;;5083109;28;20202;-66
2023/10/27 10:36:20;;;;;;;13.87;10.10;;;22.00;93.30;;;;;;5083549;28;20217;-66
2023/10/27 10:38:53;;;;;;;12.40;8.77;;;22.00;92.70;;;;;;5060341;28;20197;-67
2023/10/27 10:41:21;;;;;;;11.40;9.33;;;22.10;92.50;;;;;;5073905;28;20660;-66
2023/10/27 10:44:13;;;;;;;11.70;9.87;;;22.20;92.30;;;;;;5086391;28;20658;-66
2023/10/27 10:46:43;;;;;;;11.37;8.60;;;22.20;91.80;;;;;;5062713;28;20534;-70
2023/10/27 10:49:12;;;;;;;13.90;8.40;;;22.20;91.90;;;;;;5084011;28;20228;-67
2023/10/27 10:51:39;;;;;;;8.30;7.27;;;22.20;92.20;;;;;;5084144;28;20202;-67
2023/10/27 10:54:12;;;;;;;11.07;8.80;;;22.30;91.80;;;;;;5082319;28;20513;-67
2023/10/27 10:56:40;;;;;;;12.00;8.73;;;22.40;91.90;;;;;;5081121;28;20237;-67
2023/10/27 10:59:08;;;;;;;12.27;7.67;;;22.40;91.80;;;;;;5084643;28;20273;-66
2023/10/27 11:01:35;;;;;;;12.23;7.23;;;22.50;91.90;;;;;;5085644;28;20253;-67
2023/10/27 11:04:02;;;;;;;9.77;7.43;;;22.60;91.70;;;;;;5080784;28;20609;-67
2023/10/27 11:06:29;;;;;;;8.33;6.90;;;22.70;91.40;;;;;;5083954;28;20274;-67
2023/10/27 11:08:56;;;;;;;7.37;6.27;;;22.70;91.20;;;;;;5082897;28;20607;-66
2023/10/27 11:11:23;;;;;;;11.40;6.77;;;22.80;90.80;;;;;;5085173;28;20284;-65
2023/10/27 11:14:10;;;;;;;10.07;6.33;;;22.90;90.60;;;;;;5082669;28;20198;-65
2023/10/27 11:16:37;;;;;;;8.63;6.27;;;22.90;90.60;;;;;;5078709;28;20537;-66
2023/10/27 11:19:16;;;;;;;10.40;7.30;;;23.00;90.40;;;;;;5080698;28;20579;-65
2023/10/27 11:21:43;;;;;;;11.13;6.67;;;23.10;90.20;;;;;;5078264;28;20212;-69
2023/10/27 11:24:10;;;;;;;8.87;6.43;;;23.10;90.20;;;;;;5079299;28;20216;-66
2023/10/27 11:26:42;;;;;;;7.17;5.63;;;23.20;90.00;;;;;;5078253;28;20662;-67
2023/10/27 11:29:09;;;;;;;8.17;5.93;;;23.20;90.10;;;;;;5080658;28;20639;-67
2023/10/27 11:31:41;;;;;;;8.83;5.90;;;23.30;89.30;;;;;;5075832;28;20204;-67
2023/10/27 11:34:16;;;;;;;7.53;5.40;;;23.30;88.60;;;;;;5084130;28;20201;-65
2023/10/27 11:36:59;;;;;;;6.53;5.87;;;23.30;89.10;;;;;;5077723;28;20252;-67
2023/10/27 11:39:26;;;;;;;9.43;5.10;;;23.40;89.20;;;;;;5080778;28;20255;-68
2023/10/27 11:42:00;;;;;;;9.60;5.10;;;23.40;89.10;;;;;;5082544;28;20547;-66
2023/10/27 11:44:35;;;;;;;7.57;5.03;;;23.50;89.00;;;;;;5082244;28;20185;-68
2023/10/27 11:47:02;;;;;;;5.80;4.67;;;23.50;88.00;;;;;;5081338;28;20197;-66
2023/10/27 11:49:31;;;;;;;6.93;5.00;;;23.60;87.90;;;;;;5082148;28;20662;-66
2023/10/27 11:51:58;;;;;;;7.77;5.40;;;23.60;88.00;;;;;;5082179;28;20650;-66
2023/10/27 11:54:27;;;;;;;7.80;4.03;;;23.70;88.10;;;;;;5084373;28;20212;-65
2023/10/27 11:56:54;;;;;;;13.67;4.40;;;23.80;87.80;;;;;;5085033;28;20213;-67
2023/10/27 11:59:25;;;;;;;7.03;5.23;;;23.80;87.30;;;;;;5080181;28;20201;-69
2023/10/27 12:01:53;;;;;;;7.50;4.50;;;23.80;86.60;;;;;;5084881;28;20281;-66
2023/10/27 12:04:20;;;;;;;6.87;4.83;;;23.90;86.80;;;;;;5081551;28;20197;-68
2023/10/27 12:06:47;;;;;;;8.23;4.00;;;23.90;86.70;;;;;;5082111;28;20718;-66
2023/10/27 12:09:14;;;;;;;5.57;3.77;;;23.90;86.30;;;;;;5080095;28;20573;-67
2023/10/27 12:11:41;;;;;;;8.23;4.10;;;24.00;86.00;;;;;;5078647;28;20200;-66
2023/10/27 12:14:11;;;;;;;7.40;4.27;;;24.10;86.10;;;;;;5085046;28;20627;-65
2023/10/27 12:16:39;;;;;;;10.30;3.43;;;24.10;86.00;;;;;;5080045;28;20213;-66
2023/10/27 12:19:09;;;;;;;6.97;3.73;;;24.10;85.50;;;;;;5083948;28;20210;-66
2023/10/27 12:21:36;;;;;;;3.57;3.10;;;24.10;85.50;;;;;;5080586;28;20658;-66
2023/10/27 12:24:04;;;;;;;6.63;3.80;;;24.20;85.10;;;;;;5075754;28;20205;-66
2023/10/27 12:26:31;;;;;;;5.57;3.00;;;24.20;85.20;;;;;;5078023;28;20220;-66
2023/10/27 12:28:58;;;;;;;4.07;2.83;;;24.20;84.70;;;;;;5079005;28;20196;-66
2023/10/27 12:31:25;;;;;;;6.87;3.57;;;24.20;84.70;;;;;;5081473;28;21035;-66
2023/10/27 12:33:52;;;;;;;6.00;3.43;;;24.20;84.70;;;;;;5078743;28;20205;-66
2023/10/27 12:36:19;;;;;;;5.50;2.57;;;24.20;84.50;;;;;;5081503;28;20733;-66
2023/10/27 12:38:47;;;;;;;6.73;3.53;;;24.30;84.60;;;;;;5079939;28;20224;-66
2023/10/27 12:41:14;;;;;;;6.53;3.03;;;24.30;84.70;;;;;;5081754;28;20286;-66